Time;durP1;ratioP1;P1;durP2;ratioP2;P2;SDS_P1;SDS_P2;PMS_P1;PMS_P2;Temp;Humidity;BMP_temperature;BMP_pressure;BME280_temperature;BME280_humidity;BME280_pressure;Samples;Min_cycle;Max_cycle;Signal;HPM_P1;HPM_P2
2023/06/14 00:01:29;;;;;;;8.15;2.63;;;;;;;;;;5016376;28;20476;-88
2023/06/14 00:03:55;;;;;;;6.47;2.65;;;;;;;;;;5025631;28;20046;-88
2023/06/14 00:06:24;;;;;;;10.23;2.30;;;;;;;;;;5020300;28;20038;-87
2023/06/14 00:08:51;;;;;;;7.43;2.60;;;;;;;;;;5022782;28;20050;-88
2023/06/14 00:11:20;;;;;;;9.65;3.20;;;;;;;;;;5025462;28;20041;-88
2023/06/14 00:13:46;;;;;;;8.90;2.50;;;;;;;;;;5025139;28;20484;-88
2023/06/14 00:16:12;;;;;;;9.88;2.75;;;;;;;;;;4998865;28;20042;-87
2023/06/14 00:18:39;;;;;;;7.40;2.80;;;;;;;;;;5014968;28;20057;-89
2023/06/14 00:21:05;;;;;;;7.55;2.63;;;;;;;;;;5012612;28;20489;-88
2023/06/14 00:23:31;;;;;;;9.23;2.80;;;;;;;;;;4991302;28;20046;-88
2023/06/14 00:25:57;;;;;;;8.02;2.60;;;;;;;;;;5005956;28;20054;-88
2023/06/14 00:28:23;;;;;;;7.60;2.45;;;;;;;;;;5022531;28;20038;-88
2023/06/14 00:30:49;;;;;;;6.93;2.55;;;;;;;;;;5013284;28;20050;-88
2023/06/14 00:33:16;;;;;;;5.80;2.78;;;;;;;;;;5020119;28;20042;-88
2023/06/14 00:35:42;;;;;;;7.60;2.75;;;;;;;;;;5006706;28;20041;-88
2023/06/14 00:38:08;;;;;;;8.70;2.78;;;;;;;;;;5015650;28;20046;-89
2023/06/14 00:40:34;;;;;;;9.40;2.97;;;;;;;;;;5016059;28;20052;-87
2023/06/14 00:43:01;;;;;;;9.88;2.90;;;;;;;;;;5022765;28;20043;-88
2023/06/14 00:45:27;;;;;;;7.25;3.00;;;;;;;;;;5020384;28;20443;-87
2023/06/14 00:47:55;;;;;;;7.50;3.33;;;;;;;;;;5020380;28;20042;-88
2023/06/14 00:50:23;;;;;;;9.00;3.10;;;;;;;;;;5025318;28;20052;-88
2023/06/14 00:52:49;;;;;;;11.85;3.10;;;;;;;;;;5025140;28;20053;-88
2023/06/14 00:55:15;;;;;;;8.32;3.22;;;;;;;;;;5009105;28;20078;-87
2023/06/14 00:57:42;;;;;;;9.18;3.13;;;;;;;;;;5023813;28;20064;-87
2023/06/14 01:00:09;;;;;;;9.10;3.20;;;;;;;;;;5019877;28;20038;-87
2023/06/14 01:02:40;;;;;;;7.55;2.75;;;;;;;;;;5007366;28;20105;-87
2023/06/14 01:05:07;;;;;;;6.68;2.95;;;;;;;;;;5022998;28;20034;-87
2023/06/14 01:07:47;;;;;;;9.10;3.65;;;;;;;;;;5020154;28;20049;-89
2023/06/14 01:10:17;;;;;;;10.98;3.42;;;;;;;;;;5014545;28;20080;-87
2023/06/14 01:12:52;;;;;;;5.97;3.05;;;;;;;;;;5019719;28;20054;-86
2023/06/14 01:15:19;;;;;;;9.75;3.00;;;;;;;;;;5032706;28;20109;-88
2023/06/14 01:17:46;;;;;;;6.88;2.85;;;;;;;;;;5033941;28;20026;-87
2023/06/14 01:20:14;;;;;;;8.43;2.72;;;;;;;;;;5010700;28;20042;-87
2023/06/14 01:22:53;;;;;;;10.88;3.08;;;;;;;;;;4998917;28;20045;-86
2023/06/14 01:25:23;;;;;;;9.82;2.78;;;;;;;;;;5034926;28;20022;-87
2023/06/14 01:27:54;;;;;;;12.70;2.80;;;;;;;;;;5025596;28;20081;-87
2023/06/14 01:30:21;;;;;;;6.57;2.65;;;;;;;;;;5022315;28;20042;-87
2023/06/14 01:32:47;;;;;;;8.20;2.88;;;;;;;;;;5005162;28;20042;-85
2023/06/14 01:35:14;;;;;;;9.35;2.70;;;;;;;;;;5019452;28;20042;-86
2023/06/14 01:37:40;;;;;;;6.80;2.80;;;;;;;;;;5026864;28;20038;-85
2023/06/14 01:40:07;;;;;;;7.95;2.60;;;;;;;;;;5012870;28;20062;-86
2023/06/14 01:42:37;;;;;;;6.75;2.45;;;;;;;;;;5023188;28;20046;-86
2023/06/14 01:45:05;;;;;;;8.00;2.72;;;;;;;;;;5023562;28;20392;-85
2023/06/14 01:47:31;;;;;;;7.47;3.13;;;;;;;;;;5022352;28;20132;-86
2023/06/14 01:49:57;;;;;;;7.75;2.60;;;;;;;;;;5000917;28;20089;-86
2023/06/14 01:52:24;;;;;;;8.82;2.80;;;;;;;;;;5021587;28;20042;-87
2023/06/14 01:54:50;;;;;;;7.80;2.40;;;;;;;;;;5020647;28;20476;-87
2023/06/14 01:57:17;;;;;;;8.75;2.85;;;;;;;;;;5023925;28;20050;-87
2023/06/14 01:59:47;;;;;;;7.85;2.60;;;;;;;;;;5023054;28;20072;-87
2023/06/14 02:02:14;;;;;;;9.48;3.08;;;;;;;;;;5031036;28;20141;-86
2023/06/14 02:04:40;;;;;;;9.80;2.58;;;;;;;;;;5014608;28;20051;-85
2023/06/14 02:07:06;;;;;;;8.45;2.70;;;;;;;;;;5013797;28;20045;-86
2023/06/14 02:09:32;;;;;;;5.95;2.50;;;;;;;;;;4998800;28;20050;-86
2023/06/14 02:11:58;;;;;;;6.03;2.47;;;;;;;;;;5010578;28;20058;-86
2023/06/14 02:14:24;;;;;;;7.13;2.60;;;;;;;;;;5027689;28;20120;-87
2023/06/14 02:16:50;;;;;;;7.13;2.55;;;;;;;;;;5028548;28;20042;-86
2023/06/14 02:19:17;;;;;;;6.55;2.60;;;;;;;;;;5023346;28;20044;-86
2023/06/14 02:21:44;;;;;;;8.57;2.78;;;;;;;;;;5015560;28;20038;-86
2023/06/14 02:24:10;;;;;;;6.45;3.00;;;;;;;;;;5028424;28;20042;-87
2023/06/14 02:26:41;;;;;;;6.70;3.13;;;;;;;;;;5020449;28;20069;-88
2023/06/14 02:29:12;;;;;;;7.40;2.95;;;;;;;;;;5028926;28;20504;-86
2023/06/14 02:31:38;;;;;;;9.73;2.97;;;;;;;;;;5028360;28;20041;-87
2023/06/14 02:34:05;;;;;;;7.88;2.83;;;;;;;;;;5026995;28;20070;-87
2023/06/14 02:36:31;;;;;;;6.05;3.13;;;;;;;;;;5027528;28;20042;-87
2023/06/14 02:38:57;;;;;;;7.82;2.90;;;;;;;;;;5028548;28;20496;-87
2023/06/14 02:41:27;;;;;;;10.32;3.08;;;;;;;;;;5013177;28;20042;-87
2023/06/14 02:43:53;;;;;;;7.75;3.00;;;;;;;;;;5023501;28;20050;-86
2023/06/14 02:46:19;;;;;;;8.43;3.00;;;;;;;;;;5010661;28;20125;-87
2023/06/14 02:48:45;;;;;;;7.90;3.00;;;;;;;;;;5008137;28;20050;-87
2023/06/14 02:51:13;;;;;;;7.68;2.80;;;;;;;;;;5019967;28;20049;-87
2023/06/14 02:53:40;;;;;;;6.18;2.97;;;;;;;;;;5025788;28;20113;-87
2023/06/14 02:56:06;;;;;;;8.77;2.85;;;;;;;;;;5025256;28;20050;-86
2023/06/14 02:58:33;;;;;;;8.82;3.22;;;;;;;;;;5026402;28;20042;-87
2023/06/14 03:01:03;;;;;;;9.00;3.00;;;;;;;;;;5026134;28;20145;-86
2023/06/14 03:03:29;;;;;;;7.60;3.07;;;;;;;;;;5029700;28;20049;-86
2023/06/14 03:05:56;;;;;;;7.32;3.08;;;;;;;;;;5027921;28;20054;-87
2023/06/14 03:08:26;;;;;;;9.30;3.00;;;;;;;;;;5023788;28;20053;-87
2023/06/14 03:10:53;;;;;;;5.43;2.60;;;;;;;;;;5024211;28;20041;-86
2023/06/14 03:13:23;;;;;;;9.60;3.15;;;;;;;;;;5028047;28;20041;-87
2023/06/14 03:15:52;;;;;;;9.00;3.33;;;;;;;;;;5030190;28;20041;-87
2023/06/14 03:18:19;;;;;;;7.30;2.97;;;;;;;;;;5037403;28;20038;-86
2023/06/14 03:20:48;;;;;;;8.82;3.03;;;;;;;;;;5024761;28;20045;-87
2023/06/14 03:23:14;;;;;;;9.30;3.17;;;;;;;;;;5020927;28;20041;-86
2023/06/14 03:25:42;;;;;;;8.05;3.55;;;;;;;;;;5026646;28;20036;-87
2023/06/14 03:28:08;;;;;;;7.65;3.17;;;;;;;;;;5035194;28;20117;-88
2023/06/14 03:30:34;;;;;;;8.40;3.15;;;;;;;;;;5030748;28;20042;-87
2023/06/14 03:33:04;;;;;;;9.35;3.22;;;;;;;;;;5020544;28;20058;-87
2023/06/14 03:35:30;;;;;;;7.55;3.17;;;;;;;;;;5019039;28;20049;-86
2023/06/14 03:37:57;;;;;;;8.57;3.00;;;;;;;;;;5023629;28;20045;-87
2023/06/14 03:40:27;;;;;;;8.05;3.30;;;;;;;;;;5015654;28;20054;-86
2023/06/14 03:42:54;;;;;;;8.30;3.50;;;;;;;;;;5014855;28;20435;-86
2023/06/14 03:45:20;;;;;;;8.82;2.90;;;;;;;;;;4998653;28;20137;-87
2023/06/14 03:47:46;;;;;;;7.45;3.03;;;;;;;;;;5025419;28;20045;-85
2023/06/14 03:50:12;;;;;;;8.55;3.40;;;;;;;;;;5024307;28;20042;-88
2023/06/14 03:52:39;;;;;;;7.22;3.40;;;;;;;;;;5017721;28;20042;-86
2023/06/14 03:55:05;;;;;;;9.63;3.58;;;;;;;;;;5009042;28;20061;-87
2023/06/14 03:57:31;;;;;;;8.70;3.42;;;;;;;;;;5026170;28;20054;-87
2023/06/14 03:59:57;;;;;;;7.88;3.50;;;;;;;;;;5023439;28;20049;-86
2023/06/14 04:02:24;;;;;;;9.88;3.33;;;;;;;;;;5011482;28;20069;-86
2023/06/14 04:04:51;;;;;;;8.65;3.45;;;;;;;;;;5014437;28;20496;-87
2023/06/14 04:07:19;;;;;;;10.13;3.95;;;;;;;;;;5012890;28;20050;-87
2023/06/14 04:09:46;;;;;;;6.90;3.08;;;;;;;;;;5021470;28;20049;-88
2023/06/14 04:12:12;;;;;;;6.15;3.20;;;;;;;;;;5024202;28;20046;-86
2023/06/14 04:14:39;;;;;;;9.55;3.30;;;;;;;;;;5024394;28;20519;-87
2023/06/14 04:17:05;;;;;;;9.50;3.80;;;;;;;;;;5027014;28;20051;-88
2023/06/14 04:19:31;;;;;;;10.00;3.58;;;;;;;;;;5026597;28;20042;-87
2023/06/14 04:22:01;;;;;;;8.43;3.28;;;;;;;;;;5011285;28;20047;-86
2023/06/14 04:24:31;;;;;;;7.78;2.95;;;;;;;;;;5019972;28;20057;-88
2023/06/14 04:26:58;;;;;;;9.25;3.65;;;;;;;;;;5025507;28;20417;-88
2023/06/14 04:29:26;;;;;;;10.73;3.22;;;;;;;;;;5025316;28;20484;-87
2023/06/14 04:31:58;;;;;;;8.15;3.33;;;;;;;;;;5020001;28;20080;-88
2023/06/14 04:34:29;;;;;;;8.43;3.20;;;;;;;;;;5024468;28;20124;-88
2023/06/14 04:36:59;;;;;;;14.05;4.28;;;;;;;;;;5021737;28;20053;-87
2023/06/14 04:39:26;;;;;;;7.47;3.20;;;;;;;;;;5024180;28;20122;-88
2023/06/14 04:41:56;;;;;;;8.02;3.30;;;;;;;;;;5019936;28;20049;-86
2023/06/14 04:44:29;;;;;;;8.18;3.58;;;;;;;;;;5024497;28;20034;-87
2023/06/14 04:46:56;;;;;;;9.65;3.58;;;;;;;;;;5030923;28;20101;-86
2023/06/14 04:49:23;;;;;;;7.38;3.95;;;;;;;;;;5027646;28;20050;-87
2023/06/14 04:51:57;;;;;;;9.70;3.95;;;;;;;;;;5023773;28;20100;-86
2023/06/14 04:54:24;;;;;;;6.85;3.65;;;;;;;;;;5022681;28;20058;-87
2023/06/14 04:56:50;;;;;;;11.02;4.20;;;;;;;;;;5015880;28;20043;-87
2023/06/14 04:59:17;;;;;;;14.85;4.32;;;;;;;;;;5025236;28;20074;-87
2023/06/14 05:01:47;;;;;;;7.50;3.80;;;;;;;;;;5021231;28;20050;-86
2023/06/14 05:04:15;;;;;;;11.48;3.90;;;;;;;;;;5001843;28;20061;-84
2023/06/14 05:06:41;;;;;;;9.95;3.90;;;;;;;;;;5005963;28;20073;-86
2023/06/14 05:09:08;;;;;;;8.32;3.63;;;;;;;;;;5017361;28;20068;-86
2023/06/14 05:11:34;;;;;;;11.80;4.45;;;;;;;;;;5018675;28;20053;-86
2023/06/14 05:14:00;;;;;;;8.85;4.13;;;;;;;;;;5022073;28;20134;-86
2023/06/14 05:16:27;;;;;;;11.65;4.07;;;;;;;;;;5017747;28;20065;-86
2023/06/14 05:18:53;;;;;;;12.05;3.75;;;;;;;;;;5018485;28;20050;-86
2023/06/14 05:21:19;;;;;;;10.32;3.90;;;;;;;;;;5015093;28;20065;-87
2023/06/14 05:23:45;;;;;;;7.05;3.70;;;;;;;;;;5015551;28;20061;-86
2023/06/14 05:26:12;;;;;;;7.18;3.85;;;;;;;;;;5016473;28;20743;-85
2023/06/14 05:28:38;;;;;;;8.45;3.85;;;;;;;;;;5015826;28;20050;-86
2023/06/14 05:31:07;;;;;;;10.77;3.40;;;;;;;;;;5013718;28;20065;-84
2023/06/14 05:33:33;;;;;;;7.50;3.40;;;;;;;;;;5016754;28;20073;-86
2023/06/14 05:35:59;;;;;;;9.93;3.50;;;;;;;;;;5024245;28;20037;-87
2023/06/14 05:38:25;;;;;;;6.85;3.40;;;;;;;;;;5020588;28;20038;-87
2023/06/14 05:40:51;;;;;;;8.88;3.30;;;;;;;;;;5021006;28;20468;-87
2023/06/14 05:43:18;;;;;;;7.68;3.60;;;;;;;;;;5020564;28;20045;-87
2023/06/14 05:45:46;;;;;;;11.27;3.42;;;;;;;;;;5026525;28;20092;-86
2023/06/14 05:48:13;;;;;;;7.95;3.22;;;;;;;;;;5030180;28;20136;-87
2023/06/14 05:50:39;;;;;;;7.32;3.10;;;;;;;;;;5027899;28;20045;-85
2023/06/14 05:53:05;;;;;;;6.78;3.47;;;;;;;;;;5021915;28;20049;-86
2023/06/14 05:55:31;;;;;;;7.28;2.97;;;;;;;;;;5022095;28;20046;-86
2023/06/14 05:57:57;;;;;;;9.00;3.25;;;;;;;;;;5019593;28;20062;-87
2023/06/14 06:00:30;;;;;;;7.32;3.28;;;;;;;;;;5039245;28;20056;-87
2023/06/14 06:02:57;;;;;;;7.97;3.30;;;;;;;;;;5029292;28;20045;-85
2023/06/14 06:05:26;;;;;;;6.93;2.97;;;;;;;;;;5031316;28;20045;-85
2023/06/14 06:07:52;;;;;;;7.22;3.08;;;;;;;;;;5032410;28;20100;-87
2023/06/14 06:10:18;;;;;;;9.55;3.25;;;;;;;;;;5030489;28;20092;-88
2023/06/14 06:12:47;;;;;;;7.88;2.90;;;;;;;;;;5009977;28;20074;-88
2023/06/14 06:15:14;;;;;;;6.97;3.30;;;;;;;;;;5030699;28;20081;-87
2023/06/14 06:17:42;;;;;;;8.25;2.80;;;;;;;;;;5029196;28;20187;-87
2023/06/14 06:20:09;;;;;;;26.85;3.78;;;;;;;;;;5028738;28;20050;-87
2023/06/14 06:22:38;;;;;;;14.95;3.08;;;;;;;;;;5028186;28;20049;-86
2023/06/14 06:25:06;;;;;;;8.43;3.20;;;;;;;;;;5025835;28;20544;-87
2023/06/14 06:27:32;;;;;;;6.05;2.75;;;;;;;;;;5009883;28;20042;-87
2023/06/14 06:29:58;;;;;;;8.35;2.95;;;;;;;;;;5011563;28;20543;-87
2023/06/14 06:32:24;;;;;;;7.30;2.88;;;;;;;;;;5028888;28;20038;-88
2023/06/14 06:34:51;;;;;;;6.65;2.90;;;;;;;;;;5027996;28;20050;-87
2023/06/14 06:37:17;;;;;;;6.07;2.67;;;;;;;;;;5025060;28;20049;-88
2023/06/14 06:39:43;;;;;;;8.07;2.90;;;;;;;;;;5023222;28;20048;-89
2023/06/14 06:42:10;;;;;;;8.40;2.70;;;;;;;;;;5024708;28;20042;-88
2023/06/14 06:44:36;;;;;;;8.00;2.60;;;;;;;;;;5021653;28;20119;-86
2023/06/14 06:47:02;;;;;;;8.45;2.80;;;;;;;;;;5027574;28;20073;-86
2023/06/14 06:49:28;;;;;;;7.30;2.90;;;;;;;;;;5015981;28;20126;-87
2023/06/14 06:52:07;;;;;;;6.40;2.75;;;;;;;;;;5026846;28;20053;-88
2023/06/14 06:54:37;;;;;;;9.30;2.55;;;;;;;;;;5009633;28;20049;-88
2023/06/14 06:57:06;;;;;;;7.53;2.80;;;;;;;;;;5029878;28;20045;-87
2023/06/14 06:59:32;;;;;;;6.18;2.70;;;;;;;;;;5029269;28;20096;-88
2023/06/14 07:01:58;;;;;;;9.00;2.45;;;;;;;;;;5026235;28;20042;-89
2023/06/14 07:04:25;;;;;;;9.85;2.40;;;;;;;;;;5029478;28;20122;-87
2023/06/14 07:06:51;;;;;;;9.75;2.47;;;;;;;;;;5029723;28;20128;-86
2023/06/14 07:09:19;;;;;;;8.50;2.75;;;;;;;;;;5028969;28;20046;-88
2023/06/14 07:11:48;;;;;;;7.47;2.25;;;;;;;;;;5027972;28;20049;-88
2023/06/14 07:14:14;;;;;;;6.22;2.30;;;;;;;;;;5029332;28;20117;-88
2023/06/14 07:16:43;;;;;;;6.70;2.55;;;;;;;;;;5013269;28;20076;-88
2023/06/14 07:19:10;;;;;;;7.78;2.75;;;;;;;;;;5037056;28;20050;-86
2023/06/14 07:21:38;;;;;;;6.80;2.38;;;;;;;;;;5034175;28;20038;-87
2023/06/14 07:24:06;;;;;;;11.27;2.58;;;;;;;;;;5029292;28;20105;-88
2023/06/14 07:26:32;;;;;;;8.32;2.60;;;;;;;;;;5029051;28;20052;-87
2023/06/14 07:28:58;;;;;;;5.57;2.10;;;;;;;;;;5029356;28;20049;-87
2023/06/14 07:31:24;;;;;;;6.40;2.50;;;;;;;;;;5029674;28;20169;-87
2023/06/14 07:33:52;;;;;;;7.47;2.47;;;;;;;;;;5035737;28;20033;-86
2023/06/14 07:36:18;;;;;;;8.52;2.50;;;;;;;;;;5038769;28;20037;-87
2023/06/14 07:38:44;;;;;;;6.90;2.20;;;;;;;;;;5037458;28;20049;-87
2023/06/14 07:41:13;;;;;;;6.45;2.25;;;;;;;;;;5027649;28;20057;-88
2023/06/14 07:43:39;;;;;;;4.80;2.28;;;;;;;;;;5029458;28;20046;-88
2023/06/14 07:46:05;;;;;;;6.28;2.35;;;;;;;;;;5029096;28;20057;-88
2023/06/14 07:48:31;;;;;;;6.05;2.10;;;;;;;;;;5011683;28;20045;-86
2023/06/14 07:50:58;;;;;;;5.97;1.98;;;;;;;;;;5027441;28;20034;-88
2023/06/14 07:53:24;;;;;;;7.32;2.30;;;;;;;;;;5026692;28;20069;-86
2023/06/14 07:55:51;;;;;;;4.80;1.92;;;;;;;;;;5027697;28;20042;-87
2023/06/14 07:58:17;;;;;;;4.90;2.20;;;;;;;;;;5027961;28;20049;-88
2023/06/14 08:00:43;;;;;;;4.32;2.00;;;;;;;;;;5027511;28;20041;-88
2023/06/14 08:03:10;;;;;;;6.65;2.20;;;;;;;;;;5026346;28;20092;-86
2023/06/14 08:05:36;;;;;;;6.35;2.25;;;;;;;;;;5031569;28;20080;-87
2023/06/14 08:08:03;;;;;;;6.18;2.00;;;;;;;;;;5033063;28;20046;-89
2023/06/14 08:10:29;;;;;;;6.63;2.00;;;;;;;;;;5016079;28;20057;-88
2023/06/14 08:12:57;;;;;;;6.65;2.17;;;;;;;;;;5029929;28;20056;-87
2023/06/14 08:15:23;;;;;;;7.10;2.30;;;;;;;;;;5030748;28;20045;-88
2023/06/14 08:17:50;;;;;;;7.30;2.10;;;;;;;;;;5011465;28;20053;-88
2023/06/14 08:20:16;;;;;;;4.15;1.90;;;;;;;;;;5028590;28;20079;-89
2023/06/14 08:22:42;;;;;;;6.95;2.15;;;;;;;;;;5025025;28;20104;-87
2023/06/14 08:25:09;;;;;;;8.20;2.13;;;;;;;;;;5009819;28;20045;-88
2023/06/14 08:27:35;;;;;;;9.80;2.22;;;;;;;;;;5011292;28;20033;-89
2023/06/14 08:30:02;;;;;;;8.40;2.13;;;;;;;;;;5014841;28;20454;-89
2023/06/14 08:32:29;;;;;;;5.97;2.10;;;;;;;;;;5014400;28;20049;-88
2023/06/14 08:34:55;;;;;;;4.10;1.95;;;;;;;;;;5031425;28;20042;-87
2023/06/14 08:37:21;;;;;;;4.43;1.80;;;;;;;;;;5035290;28;20053;-86
2023/06/14 08:39:47;;;;;;;7.22;2.25;;;;;;;;;;5035623;28;20068;-88
2023/06/14 08:42:14;;;;;;;4.85;2.30;;;;;;;;;;5026442;28;20042;-87
2023/06/14 08:44:40;;;;;;;5.78;2.13;;;;;;;;;;5021341;28;20038;-88
2023/06/14 08:47:08;;;;;;;6.10;2.03;;;;;;;;;;5024709;28;20042;-87
2023/06/14 08:49:36;;;;;;;6.70;2.30;;;;;;;;;;5024763;28;20133;-90
2023/06/14 08:52:03;;;;;;;5.53;2.00;;;;;;;;;;5026313;28;20046;-88
2023/06/14 08:54:30;;;;;;;5.45;2.10;;;;;;;;;;5025235;28;20077;-89
2023/06/14 08:57:00;;;;;;;7.57;2.28;;;;;;;;;;5027495;28;20042;-89
2023/06/14 08:59:27;;;;;;;8.38;2.40;;;;;;;;;;5028363;28;20540;-87
2023/06/14 09:01:54;;;;;;;6.68;2.00;;;;;;;;;;5026435;28;20080;-88
2023/06/14 09:04:21;;;;;;;5.95;1.90;;;;;;;;;;5014700;28;20158;-89
2023/06/14 09:06:52;;;;;;;7.38;2.00;;;;;;;;;;5008083;28;20050;-90
2023/06/14 09:09:22;;;;;;;7.72;2.30;;;;;;;;;;5009695;28;20046;-89
2023/06/14 09:11:51;;;;;;;5.33;1.70;;;;;;;;;;5010162;28;20050;-91
2023/06/14 09:14:19;;;;;;;5.82;2.13;;;;;;;;;;5025032;28;20046;-89
2023/06/14 09:16:47;;;;;;;5.07;1.90;;;;;;;;;;5022678;28;20046;-88
2023/06/14 09:19:43;;;;;;;8.38;1.90;;;;;;;;;;5029264;28;20038;-88
2023/06/14 09:22:11;;;;;;;7.47;1.90;;;;;;;;;;5019210;28;20089;-89
2023/06/14 09:24:37;;;;;;;5.60;1.42;;;;;;;;;;5031027;28;20093;-88
2023/06/14 09:27:04;;;;;;;4.68;1.52;;;;;;;;;;5038150;28;20049;-89
2023/06/14 09:29:34;;;;;;;5.05;1.63;;;;;;;;;;5031302;28;20049;-85
2023/06/14 09:32:00;;;;;;;3.55;1.27;;;;;;;;;;5029923;28;20488;-86
2023/06/14 09:34:29;;;;;;;7.25;1.95;;;;;;;;;;5032244;28;20046;-86
2023/06/14 09:36:55;;;;;;;5.78;1.83;;;;;;;;;;5030797;28;20046;-88
2023/06/14 09:39:21;;;;;;;3.78;1.45;;;;;;;;;;5012724;28;20160;-85
2023/06/14 09:41:50;;;;;;;6.53;1.50;;;;;;;;;;5030869;28;20046;-87
2023/06/14 09:44:17;;;;;;;3.97;1.60;;;;;;;;;;5023949;28;20053;-87
2023/06/14 09:46:44;;;;;;;6.75;1.33;;;;;;;;;;5029877;28;20057;-88
2023/06/14 09:49:10;;;;;;;11.65;1.73;;;;;;;;;;5031217;28;20072;-87
2023/06/14 09:51:43;;;;;;;5.88;1.30;;;;;;;;;;5029314;28;20045;-89
2023/06/14 09:54:13;;;;;;;3.70;1.40;;;;;;;;;;5033688;28;20080;-88
2023/06/14 09:56:42;;;;;;;4.63;1.50;;;;;;;;;;5031953;28;20064;-87
2023/06/14 09:59:10;;;;;;;8.30;1.92;;;;;;;;;;5030718;28;20480;-87
2023/06/14 10:01:39;;;;;;;3.80;1.33;;;;;;;;;;5029547;28;20065;-86
2023/06/14 10:04:06;;;;;;;4.57;1.50;;;;;;;;;;5028615;28;20068;-87
2023/06/14 10:06:33;;;;;;;5.88;1.58;;;;;;;;;;5025301;28;20069;-87
2023/06/14 10:08:59;;;;;;;5.78;1.60;;;;;;;;;;5027299;28;20045;-87
2023/06/14 10:11:26;;;;;;;7.82;1.60;;;;;;;;;;5029242;28;20041;-85
2023/06/14 10:13:52;;;;;;;4.75;1.42;;;;;;;;;;5029445;28;20049;-86
2023/06/14 10:16:21;;;;;;;6.22;1.73;;;;;;;;;;5005670;28;20077;-87
2023/06/14 10:19:06;;;;;;;4.82;1.77;;;;;;;;;;5017799;28;20046;-87
2023/06/14 10:21:38;;;;;;;5.35;1.35;;;;;;;;;;5011652;28;20066;-90
2023/06/14 10:24:06;;;;;;;8.52;1.73;;;;;;;;;;5031032;28;20093;-88
2023/06/14 10:26:32;;;;;;;4.30;1.30;;;;;;;;;;5036628;28;20041;-89
2023/06/14 10:29:09;;;;;;;6.47;1.73;;;;;;;;;;5032636;28;20049;-88
2023/06/14 10:31:42;;;;;;;8.18;1.70;;;;;;;;;;5033785;28;20053;-88
2023/06/14 10:34:09;;;;;;;6.05;1.52;;;;;;;;;;5012243;28;20049;-87
2023/06/14 10:36:35;;;;;;;4.93;1.55;;;;;;;;;;5030777;28;20053;-90
2023/06/14 10:39:08;;;;;;;4.63;1.50;;;;;;;;;;5033794;28;20106;-89
2023/06/14 10:41:36;;;;;;;3.70;1.65;;;;;;;;;;5048936;22;20053;-73
2023/06/14 10:44:31;;;;;;;5.85;1.50;;;;;;;;;;4992685;28;20181;-73
2023/06/14 10:47:01;;;;;;;6.63;1.58;;;;;;;;;;4991543;28;20118;-73
2023/06/14 10:49:57;;;;;;;7.72;1.67;;;;;;;;;;4991082;28;20043;-74
2023/06/14 10:52:27;;;;;;;5.03;1.60;;;;;;;;;;4967743;28;20059;-72
2023/06/14 10:55:00;;;;;;;5.22;1.63;;;;;;;;;;4975760;28;20070;-72
2023/06/14 10:57:26;;;;;;;13.38;1.75;;;;;;;;;;4996556;28;20126;-73
2023/06/14 10:59:52;;;;;;;5.00;1.60;;;;;;;;;;4978015;28;20101;-71
2023/06/14 11:02:46;;;;;;;4.10;1.40;;;;;;;;;;4978311;28;20054;-72
2023/06/14 11:05:15;;;;;;;5.38;1.58;;;;;;;;;;4997939;28;20088;-72
2023/06/14 11:08:02;;;;;;;5.63;1.60;;;;;;;;;;4994733;28;20054;-72
2023/06/14 11:10:47;;;;;;;5.07;1.65;;;;;;;;;;4995735;28;20062;-72
2023/06/14 11:13:14;;;;;;;7.43;1.83;;;;;;;;;;4995420;28;20054;-73
2023/06/14 11:15:45;;;;;;;3.97;1.60;;;;;;;;;;4987052;28;20370;-73
2023/06/14 11:18:12;;;;;;;7.90;1.70;;;;;;;;;;4977172;28;20133;-73
2023/06/14 11:20:40;;;;;;;6.38;1.75;;;;;;;;;;4980573;28;20069;-72
2023/06/14 11:23:06;;;;;;;5.45;1.60;;;;;;;;;;4992659;28;20508;-73
2023/06/14 11:25:32;;;;;;;4.53;1.70;;;;;;;;;;4996254;28;20046;-73
2023/06/14 11:27:59;;;;;;;6.95;1.60;;;;;;;;;;4994960;28;20104;-73
2023/06/14 11:30:25;;;;;;;3.70;1.60;;;;;;;;;;4996747;28;20126;-74
2023/06/14 11:32:53;;;;;;;7.10;1.70;;;;;;;;;;4991539;28;20054;-73
2023/06/14 11:35:20;;;;;;;4.43;1.48;;;;;;;;;;4980405;28;20118;-72
2023/06/14 11:37:47;;;;;;;4.30;1.70;;;;;;;;;;4980083;28;20054;-72
2023/06/14 11:40:13;;;;;;;4.32;1.50;;;;;;;;;;4995476;28;20055;-73
2023/06/14 11:42:41;;;;;;;4.13;1.40;;;;;;;;;;4979987;28;20047;-72
2023/06/14 11:45:10;;;;;;;5.63;1.33;;;;;;;;;;4991537;28;20057;-74
2023/06/14 11:47:37;;;;;;;4.22;1.42;;;;;;;;;;4987434;28;20043;-72
2023/06/14 11:50:04;;;;;;;4.50;1.55;;;;;;;;;;4994552;28;20046;-73
2023/06/14 11:52:30;;;;;;;5.00;1.45;;;;;;;;;;4996635;28;20672;-73
2023/06/14 11:54:57;;;;;;;5.63;1.40;;;;;;;;;;4994503;28;20504;-73
2023/06/14 11:57:23;;;;;;;8.48;1.55;;;;;;;;;;4994186;28;20046;-74
2023/06/14 11:59:49;;;;;;;7.35;1.30;;;;;;;;;;4993109;28;20042;-74
2023/06/14 12:02:19;;;;;;;7.22;1.80;;;;;;;;;;4985432;28;20401;-73
2023/06/14 12:04:48;;;;;;;4.43;1.70;;;;;;;;;;4994123;28;20049;-72
2023/06/14 12:07:15;;;;;;;4.80;1.60;;;;;;;;;;4986841;28;20047;-73
2023/06/14 12:10:02;;;;;;;5.93;1.90;;;;;;;;;;4979564;28;20059;-73
2023/06/14 12:12:31;;;;;;;3.53;1.65;;;;;;;;;;4994929;28;20125;-72
2023/06/14 12:14:57;;;;;;;6.03;1.52;;;;;;;;;;4991168;28;20126;-73
2023/06/14 12:17:23;;;;;;;10.85;1.70;;;;;;;;;;4993898;28;20069;-72
2023/06/14 12:19:51;;;;;;;5.78;1.63;;;;;;;;;;4996420;28;20412;-73
2023/06/14 12:22:18;;;;;;;6.32;1.80;;;;;;;;;;4995984;28;20051;-74
2023/06/14 12:24:44;;;;;;;4.15;1.50;;;;;;;;;;4991334;28;20081;-72
2023/06/14 12:27:15;;;;;;;5.82;1.70;;;;;;;;;;4990396;28;20098;-73
2023/06/14 12:29:43;;;;;;;3.80;1.50;;;;;;;;;;4980307;28;20050;-73
2023/06/14 12:32:09;;;;;;;5.32;1.65;;;;;;;;;;4990261;28;20043;-72
2023/06/14 12:34:35;;;;;;;4.22;1.50;;;;;;;;;;4993419;28;20049;-73
2023/06/14 12:37:03;;;;;;;6.25;1.70;;;;;;;;;;4996247;28;20050;-73
2023/06/14 12:39:31;;;;;;;5.13;1.40;;;;;;;;;;4996067;28;20057;-73
2023/06/14 12:41:57;;;;;;;7.68;1.65;;;;;;;;;;4995519;28;20130;-72
2023/06/14 12:44:23;;;;;;;6.40;1.50;;;;;;;;;;4995156;28;20050;-72
2023/06/14 12:46:51;;;;;;;5.78;1.55;;;;;;;;;;4996715;28;20544;-72
2023/06/14 12:49:17;;;;;;;5.82;1.52;;;;;;;;;;4997711;28;20038;-73
2023/06/14 12:51:43;;;;;;;4.10;1.30;;;;;;;;;;4996666;28;20053;-73
2023/06/14 12:54:09;;;;;;;4.22;1.70;;;;;;;;;;4989649;28;20496;-71
2023/06/14 12:56:36;;;;;;;5.50;1.60;;;;;;;;;;4965151;28;20053;-74
2023/06/14 12:59:02;;;;;;;6.32;1.70;;;;;;;;;;4977186;28;20050;-73
2023/06/14 13:01:28;;;;;;;5.10;1.65;;;;;;;;;;4993823;28;20151;-74
2023/06/14 13:03:54;;;;;;;4.65;1.48;;;;;;;;;;4997727;28;20066;-73
2023/06/14 13:06:24;;;;;;;6.35;1.70;;;;;;;;;;4997595;28;20129;-73
2023/06/14 13:08:50;;;;;;;6.33;1.67;;;;;;;;;;4987605;28;20131;-72
2023/06/14 13:11:16;;;;;;;5.80;1.80;;;;;;;;;;4982540;28;20051;-72
2023/06/14 13:13:42;;;;;;;4.65;1.67;;;;;;;;;;4988422;28;20590;-72
2023/06/14 13:16:08;;;;;;;4.35;1.75;;;;;;;;;;4993626;28;20050;-73
2023/06/14 13:18:34;;;;;;;3.78;1.52;;;;;;;;;;4995116;28;20058;-72
2023/06/14 13:21:01;;;;;;;7.75;2.00;;;;;;;;;;4980170;28;20043;-73
2023/06/14 13:23:27;;;;;;;5.97;1.77;;;;;;;;;;4996575;28;20050;-72
2023/06/14 13:25:53;;;;;;;4.32;1.90;;;;;;;;;;4981811;28;20085;-72
2023/06/14 13:28:20;;;;;;;3.47;1.60;;;;;;;;;;4984125;28;20054;-73
2023/06/14 13:30:46;;;;;;;8.48;1.90;;;;;;;;;;4991318;28;20054;-73
2023/06/14 13:33:13;;;;;;;4.25;1.70;;;;;;;;;;4995743;28;20050;-73
2023/06/14 13:35:40;;;;;;;4.60;1.65;;;;;;;;;;4995667;28;20047;-72
2023/06/14 13:38:06;;;;;;;4.85;1.75;;;;;;;;;;4985539;28;20054;-72
2023/06/14 13:40:32;;;;;;;9.02;1.80;;;;;;;;;;4996630;28;20060;-73
2023/06/14 13:42:58;;;;;;;4.13;1.58;;;;;;;;;;4987302;28;20054;-72
2023/06/14 13:45:24;;;;;;;4.38;1.48;;;;;;;;;;4994641;28;20042;-73
2023/06/14 13:47:51;;;;;;;4.70;1.50;;;;;;;;;;4996850;28;20042;-72
2023/06/14 13:50:17;;;;;;;5.97;1.65;;;;;;;;;;4997096;28;20065;-72
2023/06/14 13:52:43;;;;;;;12.70;2.08;;;;;;;;;;4995112;28;20422;-72
2023/06/14 13:55:10;;;;;;;3.72;1.58;;;;;;;;;;4997332;28;20051;-71
2023/06/14 13:57:36;;;;;;;3.65;1.35;;;;;;;;;;4998184;28;20117;-72
2023/06/14 14:00:03;;;;;;;11.85;1.67;;;;;;;;;;4999204;28;20396;-73
2023/06/14 14:02:29;;;;;;;7.10;1.50;;;;;;;;;;4995063;28;20532;-73
2023/06/14 14:04:57;;;;;;;4.13;1.80;;;;;;;;;;4988608;28;20467;-73
2023/06/14 14:07:23;;;;;;;5.57;1.48;;;;;;;;;;4994917;28;20362;-73
2023/06/14 14:09:50;;;;;;;5.22;1.70;;;;;;;;;;4998142;28;20062;-74
2023/06/14 14:12:16;;;;;;;10.13;1.65;;;;;;;;;;5000176;28;20062;-74
2023/06/14 14:14:42;;;;;;;5.10;1.55;;;;;;;;;;4997949;28;20042;-73
2023/06/14 14:17:08;;;;;;;3.65;1.50;;;;;;;;;;4998042;28;20057;-72
2023/06/14 14:19:34;;;;;;;5.25;1.52;;;;;;;;;;4987550;28;20053;-72
2023/06/14 14:22:01;;;;;;;8.27;1.88;;;;;;;;;;4984192;28;20062;-72
2023/06/14 14:24:27;;;;;;;5.38;1.60;;;;;;;;;;4990532;28;20055;-73
2023/06/14 14:26:53;;;;;;;4.95;1.92;;;;;;;;;;4996327;28;20042;-74
2023/06/14 14:29:19;;;;;;;6.68;2.00;;;;;;;;;;4978692;28;20050;-73
2023/06/14 14:31:46;;;;;;;7.55;1.70;;;;;;;;;;4979636;28;20386;-73
2023/06/14 14:34:12;;;;;;;5.82;1.42;;;;;;;;;;4985614;28;20101;-73
2023/06/14 14:36:42;;;;;;;5.60;1.70;;;;;;;;;;4997253;28;20077;-72
2023/06/14 14:39:08;;;;;;;5.13;1.70;;;;;;;;;;4998830;28;20547;-73
2023/06/14 14:41:34;;;;;;;4.20;1.80;;;;;;;;;;4996237;28;20066;-72
2023/06/14 14:44:00;;;;;;;6.18;1.70;;;;;;;;;;4978521;28;20139;-72
2023/06/14 14:46:28;;;;;;;4.03;1.80;;;;;;;;;;4983409;28;20444;-73